createdAt,value
2023-02-28T00:00:02.269Z,2
2023-02-28T00:05:01.888Z,2
2023-02-28T00:10:02.340Z,2
2023-02-28T00:15:02.162Z,4
2023-02-28T00:20:01.796Z,3
2023-02-28T00:25:02.174Z,4
2023-02-28T00:30:01.757Z,3
2023-02-28T00:35:02.585Z,3
2023-02-28T00:40:02.094Z,2
2023-02-28T00:45:01.532Z,2
2023-02-28T00:50:01.904Z,3
2023-02-28T00:55:02.716Z,2
2023-02-28T01:00:02.284Z,3
2023-02-28T01:05:01.670Z,3
2023-02-28T01:10:02.517Z,2
2023-02-28T01:15:02.033Z,4
2023-02-28T01:20:01.480Z,3
2023-02-28T01:25:01.850Z,2
2023-02-28T01:30:02.245Z,2
2023-02-28T01:35:01.642Z,2
2023-02-28T01:40:02.080Z,3
2023-02-28T01:45:01.903Z,3
2023-02-28T01:50:02.706Z,3
2023-02-28T01:55:02.197Z,4
2023-02-28T02:00:01.561Z,3
2023-02-28T02:05:01.967Z,2
2023-02-28T02:10:01.381Z,4
2023-02-28T02:15:01.778Z,2
2023-02-28T02:20:02.315Z,2
2023-02-28T02:25:01.682Z,2
2023-02-28T02:30:02.171Z,3
2023-02-28T02:35:02.011Z,3
2023-02-28T02:40:01.612Z,3
2023-02-28T02:45:02.421Z,3
2023-02-28T02:50:02.223Z,2
2023-02-28T02:55:02.014Z,3
2023-02-28T03:00:01.420Z,3
2023-02-28T03:05:01.964Z,2
2023-02-28T03:10:01.396Z,2
2023-02-28T03:15:01.785Z,4
2023-02-28T03:20:02.680Z,7
2023-02-28T03:25:02.074Z,2
2023-02-28T03:30:01.447Z,3
2023-02-28T03:35:01.803Z,3
2023-02-28T03:40:02.220Z,2
2023-02-28T03:45:02.033Z,3
2023-02-28T03:50:01.441Z,3
2023-02-28T03:55:01.813Z,3
2023-02-28T04:00:02.226Z,3
2023-02-28T04:05:01.581Z,3
2023-02-28T04:10:01.988Z,3
2023-02-28T04:15:01.395Z,3
2023-02-28T04:20:01.834Z,2
2023-02-28T04:25:02.378Z,1
2023-02-28T04:30:02.169Z,2
2023-02-28T04:35:01.717Z,2
2023-02-28T04:40:02.301Z,3
2023-02-28T04:45:01.698Z,4
2023-02-28T04:50:02.223Z,3
2023-02-28T04:55:01.566Z,3
2023-02-28T05:00:02.371Z,4
2023-02-28T05:05:02.050Z,2
2023-02-28T05:10:01.921Z,2
2023-02-28T05:15:02.323Z,2
2023-02-28T05:20:14.804Z,2
2023-02-28T05:25:02.285Z,3
2023-02-28T05:30:02.457Z,5
2023-02-28T05:35:01.834Z,3
2023-02-28T05:40:02.425Z,2
2023-02-28T05:45:01.812Z,2
2023-02-28T05:50:02.584Z,3
2023-02-28T05:55:01.928Z,3
2023-02-28T06:00:02.448Z,2
2023-02-28T06:05:02.253Z,2
2023-02-28T06:10:01.789Z,3
2023-02-28T06:15:02.295Z,2
2023-02-28T06:20:01.866Z,2
2023-02-28T06:25:02.227Z,2
2023-02-28T06:30:01.705Z,4
2023-02-28T06:35:02.074Z,2
2023-02-28T06:40:01.470Z,2
2023-02-28T06:45:01.848Z,2
2023-02-28T06:50:02.226Z,3
2023-02-28T06:55:01.753Z,2
2023-02-28T07:00:02.392Z,3
2023-02-28T07:05:01.971Z,3
2023-02-28T07:10:01.592Z,2
2023-02-28T07:15:02.103Z,2
2023-02-28T07:20:01.687Z,3
2023-02-28T07:25:02.177Z,2
2023-02-28T07:30:01.708Z,4
2023-02-28T07:35:02.132Z,2
2023-02-28T07:40:01.664Z,2
2023-02-28T07:45:02.177Z,2
2023-02-28T07:50:01.691Z,3
2023-02-28T07:55:02.168Z,2
2023-02-28T08:00:01.655Z,1
2023-02-28T08:05:02.165Z,2
2023-02-28T08:10:02.095Z,3
2023-02-28T08:15:01.603Z,2
2023-02-28T08:20:02.493Z,1
2023-02-28T08:25:02.071Z,2
2023-02-28T08:30:01.573Z,3
2023-02-28T08:35:02.119Z,3
2023-02-28T08:40:01.650Z,2
2023-02-28T08:45:02.451Z,2
2023-02-28T08:50:02.232Z,2
2023-02-28T08:55:01.631Z,7
2023-02-28T09:00:02.026Z,32
2023-02-28T09:05:01.534Z,24
2023-02-28T09:10:01.940Z,25
2023-02-28T09:15:01.450Z,26
2023-02-28T09:20:02.337Z,24
2023-02-28T09:25:02.150Z,19
2023-02-28T09:30:01.651Z,11
2023-02-28T09:35:02.062Z,9
2023-02-28T09:40:01.465Z,6
2023-02-28T09:45:01.960Z,4
2023-02-28T09:50:01.379Z,4
2023-02-28T09:55:01.869Z,3
2023-02-28T10:00:02.710Z,6
2023-02-28T10:05:02.158Z,5
2023-02-28T10:10:01.729Z,3
2023-02-28T10:15:02.097Z,4
2023-02-28T10:20:01.696Z,3
2023-02-28T10:25:02.749Z,3
2023-02-28T10:30:02.274Z,5
2023-02-28T10:35:01.776Z,3
2023-02-28T10:40:02.627Z,3
2023-02-28T10:45:02.437Z,3
2023-02-28T10:50:02.244Z,3
2023-02-28T10:55:01.632Z,2
2023-02-28T11:00:02.466Z,2
2023-02-28T11:05:01.950Z,3
2023-02-28T11:10:01.479Z,3
2023-02-28T11:15:02.295Z,5
2023-02-28T11:20:01.983Z,1
2023-02-28T11:25:01.385Z,4
2023-02-28T11:30:02.193Z,3
2023-02-28T11:35:01.569Z,2
2023-02-28T11:40:01.969Z,2
2023-02-28T11:45:01.774Z,2
2023-02-28T11:50:02.585Z,2
2023-02-28T11:55:02.376Z,3
2023-02-28T12:00:01.935Z,2
2023-02-28T12:05:01.492Z,3
2023-02-28T12:10:01.895Z,3
2023-02-28T12:15:02.707Z,2
2023-02-28T12:20:02.577Z,3
2023-02-28T12:25:02.398Z,2
2023-02-28T12:30:01.798Z,3
2023-02-28T12:35:02.587Z,2
2023-02-28T12:40:02.210Z,2
2023-02-28T12:45:02.057Z,3
2023-02-28T12:50:01.548Z,2
2023-02-28T12:55:02.028Z,1
2023-02-28T13:00:01.425Z,3
2023-02-28T13:05:02.232Z,2
2023-02-28T13:10:01.672Z,1
2023-02-28T13:15:02.512Z,3
2023-02-28T13:20:02.146Z,2
2023-02-28T13:25:01.509Z,2
2023-02-28T13:30:02.024Z,2
2023-02-28T13:35:01.842Z,1
2023-02-28T13:40:02.360Z,2
2023-02-28T13:45:01.924Z,3
2023-02-28T13:50:02.406Z,2
2023-02-28T13:55:01.927Z,1
2023-02-28T14:00:02.449Z,3
2023-02-28T14:05:01.928Z,1
2023-02-28T14:10:01.562Z,2
2023-02-28T14:15:01.941Z,2
2023-02-28T14:20:01.840Z,2
2023-02-28T14:25:02.222Z,3
2023-02-28T14:30:01.601Z,3
2023-02-28T14:35:02.207Z,2
2023-02-28T14:40:02.050Z,1
2023-02-28T14:45:01.576Z,2
2023-02-28T14:50:02.070Z,1
2023-02-28T14:55:01.554Z,1
2023-02-28T15:00:02.066Z,1
2023-02-28T15:05:01.510Z,2
2023-02-28T15:10:02.127Z,2
2023-02-28T15:15:01.966Z,2
2023-02-28T15:20:01.459Z,3
2023-02-28T15:25:02.016Z,7
2023-02-28T15:30:01.423Z,10
2023-02-28T15:35:01.809Z,4
2023-02-28T15:40:02.445Z,9
2023-02-28T15:45:01.880Z,15
2023-02-28T15:50:02.497Z,11
2023-02-28T15:55:02.339Z,11
2023-02-28T16:00:01.838Z,14
2023-02-28T16:05:02.670Z,17
2023-02-28T16:10:02.058Z,12
2023-02-28T16:15:01.491Z,6
2023-02-28T16:20:01.968Z,3
2023-02-28T16:25:01.478Z,4
2023-02-28T16:30:01.989Z,5
2023-02-28T16:35:01.490Z,5
2023-02-28T16:40:01.899Z,5
2023-02-28T16:45:02.299Z,5
2023-02-28T16:50:01.794Z,7
2023-02-28T16:55:02.605Z,5
2023-02-28T17:00:02.013Z,8
2023-02-28T17:05:01.489Z,5
2023-02-28T17:10:02.314Z,6
2023-02-28T17:15:01.828Z,8
2023-02-28T17:20:02.413Z,6
2023-02-28T17:25:02.224Z,5
2023-02-28T17:30:01.616Z,3
2023-02-28T17:35:02.045Z,4
2023-02-28T17:40:01.462Z,4
2023-02-28T17:45:01.860Z,4
2023-02-28T17:50:02.328Z,4
2023-02-28T17:55:01.810Z,2
2023-02-28T18:00:04.156Z,3
2023-02-28T18:05:02.137Z,4
2023-02-28T18:10:01.667Z,3
2023-02-28T18:15:02.482Z,4
2023-02-28T18:20:02.056Z,2
2023-02-28T18:25:01.552Z,4
2023-02-28T18:30:01.932Z,3
2023-02-28T18:35:02.733Z,2
2023-02-28T18:40:02.561Z,3
2023-02-28T18:45:02.059Z,3
2023-02-28T18:50:02.001Z,3
2023-02-28T18:55:01.878Z,3
2023-02-28T19:00:02.324Z,2
2023-02-28T19:05:02.130Z,2
2023-02-28T19:10:01.655Z,3
2023-02-28T19:15:02.172Z,3
2023-02-28T19:20:02.041Z,3
2023-02-28T19:25:01.565Z,3
2023-02-28T19:30:02.067Z,3
2023-02-28T19:35:01.444Z,6
2023-02-28T19:40:01.976Z,3
2023-02-28T19:45:01.601Z,4
2023-02-28T19:50:01.994Z,4
2023-02-28T19:55:01.488Z,6
2023-02-28T20:00:01.892Z,5
2023-02-28T20:05:02.508Z,10
2023-02-28T20:10:02.355Z,5
2023-02-28T20:15:01.871Z,6
2023-02-28T20:20:02.316Z,6
2023-02-28T20:25:01.850Z,3
2023-02-28T20:30:02.388Z,5
2023-02-28T20:35:01.914Z,5
2023-02-28T20:40:01.758Z,5
2023-02-28T20:45:02.139Z,5
2023-02-28T20:50:01.626Z,9
2023-02-28T20:55:02.422Z,6
2023-02-28T21:00:01.956Z,6
2023-02-28T21:05:01.773Z,5
2023-02-28T21:10:02.595Z,5
2023-02-28T21:15:02.131Z,5
2023-02-28T21:20:01.617Z,5
2023-02-28T21:25:02.015Z,8
2023-02-28T21:30:02.817Z,8
2023-02-28T21:35:01.503Z,10
2023-02-28T21:40:02.329Z,5
2023-02-28T21:45:02.122Z,6
2023-02-28T21:50:01.909Z,7
2023-02-28T21:55:02.397Z,9
2023-02-28T22:00:01.860Z,6
2023-02-28T22:05:01.573Z,8
2023-02-28T22:10:02.121Z,8
2023-02-28T22:15:01.649Z,5
2023-02-28T22:20:01.886Z,7
2023-02-28T22:25:02.407Z,9
2023-02-28T22:30:01.903Z,6
2023-02-28T22:35:02.725Z,10
2023-02-28T22:40:02.562Z,9
2023-02-28T22:45:02.068Z,9
2023-02-28T22:50:01.596Z,8
2023-02-28T22:55:01.962Z,9
2023-02-28T23:00:01.650Z,9
2023-02-28T23:05:02.435Z,9
2023-02-28T23:10:02.031Z,9
2023-02-28T23:15:01.489Z,8
2023-02-28T23:20:02.231Z,9
2023-02-28T23:25:01.603Z,9
2023-02-28T23:30:02.124Z,8
2023-02-28T23:35:01.936Z,9
2023-02-28T23:40:01.800Z,8
2023-02-28T23:45:02.301Z,10
2023-02-28T23:50:01.671Z,8
2023-02-28T23:55:02.110Z,8
